Sea Queen IIa — WDH2007 — position and weather

sailwx.info

Track history (hours):
 
Tides and Currents Weather Stations Pressure Air Temp Water Temp Dewpoint Dewpoint Depression Visibility Wind Speed Wind Dir Waves Ship Positions

Sea Queen IIa

Owner: NGUYEN, THOAI V, SAN JOSE, CA. More information available from US FCC via Universal Licensing System and Coast Guard Vessel Documentation Center.

Last reported at 2018-May-30 07:35 UTC. Time now 2018-Jun-20 04:04 UTC.
Position N 37°27' W 122°41'.
Warning: this ship's position is 20 days out of date.

Length 26 m.

Type: Fishing. MMSI: 367593450.

Date/timePositionNaut miles runAvg speedWind from/ knotsBaromVisibWave heightAir tempDewpointWater temp
2018-May-30 07:35N 37°27' W 122°41'1 8.0
2018-May-30 07:30N 37°27' W 122°41'2 2.8
2018-May-30 06:54N 37°29' W 122°39'1 3.4
2018-May-30 06:30N 37°30' W 122°39'0 0.3
2018-May-30 05:47N 37°30' W 122°39'0 0.7
2018-May-30 05:25N 37°30' W 122°39'2 3.0
2018-May-30 04:54N 37°32' W 122°39'16 7.2
2018-May-30 02:37N 37°48' W 122°32'1 7.2
2018-May-30 02:28N 37°48' W 122°31'4 7.6
2018-May-30 02:00N 37°49' W 122°27'1 2.5
2018-May-30 01:30N 37°49' W 122°25'0 0.0
2018-May-30 01:00N 37°49' W 122°25'0 0.0
2018-May-30 00:30N 37°49' W 122°25'0 0.0
2018-May-30 00:00N 37°49' W 122°25'0 0.0
2018-May-29 23:30N 37°49' W 122°25'0 0.0
2018-May-29 23:00N 37°49' W 122°25'0 0.0
2018-May-29 22:30N 37°49' W 122°25'0 0.0
2018-May-29 21:55N 37°49' W 122°25'0 0.0
2018-May-29 21:28N 37°49' W 122°25'0 0.0
2018-May-29 20:58N 37°49' W 122°25'0 0.0
2018-May-29 20:28N 37°49' W 122°25'0 0.0
2018-May-29 19:58N 37°49' W 122°25'0 0.0
2018-May-29 19:28N 37°49' W 122°25'0 0.0
2018-May-29 18:58N 37°49' W 122°25'0 0.0
2018-May-29 18:25N 37°49' W 122°25'0 0.0
2018-May-29 17:52N 37°49' W 122°25'0 0.0
2018-May-29 17:25N 37°49' W 122°25'0 0.0
2018-May-29 16:55N 37°49' W 122°25'0 0.0
2018-May-29 16:28N 37°49' W 122°25'0 0.0
2018-May-29 15:58N 37°49' W 122°25'0 0.0
2018-May-29 15:28N 37°49' W 122°25'0 0.0
2018-May-29 14:58N 37°49' W 122°25'0 0.0
2018-May-29 14:28N 37°49' W 122°25'0 0.0
2018-May-29 13:58N 37°49' W 122°25'0 0.1
2018-May-29 13:30N 37°49' W 122°25'3 5.5
2018-May-29 12:59N 37°49' W 122°22'0 0.2
2018-May-29 12:27N 37°49' W 122°22'0 0.0
2018-May-29 12:00N 37°49' W 122°22'0 0.0
2018-May-29 11:18N 37°49' W 122°22'0 0.0
2018-May-29 11:00N 37°49' W 122°22'0 0.0
2018-May-29 10:27N 37°49' W 122°22'0 0.0
2018-May-29 09:54N 37°49' W 122°22'0 0.0
2018-May-29 09:30N 37°49' W 122°22'0 0.0
2018-May-29 08:54N 37°49' W 122°22'0 0.0
2018-May-29 08:24N 37°49' W 122°22'0 0.0
2018-May-29 06:30N 37°49' W 122°22'0 0.0
2018-May-29 05:30N 37°49' W 122°22'0 0.0
2018-May-29 05:00N 37°49' W 122°22'0 0.0
2018-May-29 04:27N 37°49' W 122°22'0 0.0
2018-May-29 04:00N 37°49' W 122°22'0 0.0
2018-May-29 03:21N 37°49' W 122°22'0 0.0
2018-May-29 03:00N 37°49' W 122°22'0 0.0
2018-May-29 02:18N 37°49' W 122°22'0 0.0
2018-May-29 02:00N 37°49' W 122°22'0 0.0
2018-May-29 01:30N 37°49' W 122°22'0 0.0
2018-May-29 00:48N 37°49' W 122°22'0 0.0
2018-May-29 00:30N 37°49' W 122°22'0 0.0
2018-May-28 23:51N 37°49' W 122°22'0 0.0
2018-May-28 23:30N 37°49' W 122°22'0 0.0
2018-May-28 23:00N 37°49' W 122°22'0 0.0
2018-May-28 22:30N 37°49' W 122°22'0 0.0
2018-May-28 22:00N 37°49' W 122°22'0 0.0
2018-May-28 21:27N 37°49' W 122°22'0 0.0
2018-May-28 20:57N 37°49' W 122°22'0 0.0
2018-May-28 20:27N 37°49' W 122°22'0 0.0
2018-May-28 20:00N 37°49' W 122°22'0 0.0
2018-May-28 19:27N 37°49' W 122°22'0 0.0
2018-May-28 19:00N 37°49' W 122°22'0 0.0
2018-May-28 18:27N 37°49' W 122°22'0 0.0
2018-May-28 18:00N 37°49' W 122°22'0 0.0
2018-May-28 17:30N 37°49' W 122°22'0 0.0
2018-May-28 16:54N 37°49' W 122°22'0 0.0
2018-May-28 16:30N 37°49' W 122°22'0 0.0
2018-May-28 16:00N 37°49' W 122°22'0 0.0
2018-May-28 15:30N 37°49' W 122°22'0 0.0
2018-May-28 15:00N 37°49' W 122°22'0 0.0
2018-May-28 14:27N 37°49' W 122°22'0 0.0
2018-May-28 14:00N 37°49' W 122°22'0 0.0
2018-May-28 13:30N 37°49' W 122°22'0 0.0
2018-May-28 13:00N 37°49' W 122°22'0 0.0
2018-May-28 12:24N 37°49' W 122°22'0 0.0
2018-May-28 12:00N 37°49' W 122°22'0 0.0
2018-May-28 11:27N 37°49' W 122°22'0 0.0
2018-May-28 11:00N 37°49' W 122°22'0 0.0
2018-May-28 10:30N 37°49' W 122°22'0 0.0
2018-May-28 09:54N 37°49' W 122°22'0 0.0
2018-May-28 09:30N 37°49' W 122°22'0 0.0
2018-May-28 09:00N 37°49' W 122°22'0 0.0
2018-May-28 08:18N 37°49' W 122°22'0 0.0
2018-May-28 08:00N 37°49' W 122°22'0 0.0
2018-May-28 07:30N 37°49' W 122°22'0 0.0
2018-May-28 07:00N 37°49' W 122°22'0 0.0
2018-May-28 06:24N 37°49' W 122°22'0 0.0
2018-May-28 06:00N 37°49' W 122°22'0 0.0
2018-May-28 05:30N 37°49' W 122°22'0 0.0
2018-May-28 04:21N 37°49' W 122°22'0 0.0
2018-May-28 03:57N 37°49' W 122°22'0 0.0
2018-May-28 03:30N 37°49' W 122°22'0 0.0
2018-May-28 03:00N 37°49' W 122°22'0 0.0
2018-May-28 02:30N 37°49' W 122°22'0 0.0
2018-May-28 01:54N 37°49' W 122°22'0 0.0
2018-May-28 01:30N 37°49' W 122°22'0 0.0
2018-May-28 01:00N 37°49' W 122°22'0 0.0
2018-May-28 00:30N 37°49' W 122°22'0 0.0
2018-May-28 00:00N 37°49' W 122°22'0 0.0
2018-May-27 23:18N 37°49' W 122°22'0 0.0
2018-May-27 23:00N 37°49' W 122°22'0 0.0
2018-May-27 22:24N 37°49' W 122°22'0 0.0
2018-May-27 22:00N 37°49' W 122°22'0 0.0
2018-May-27 21:12N 37°49' W 122°22'0 0.0
2018-May-27 20:54N 37°49' W 122°22'0 0.0
2018-May-27 20:27N 37°49' W 122°22'0 0.0
2018-May-27 20:00N 37°49' W 122°22'0 0.0
2018-May-27 19:24N 37°49' W 122°22'0 0.0
2018-May-27 19:00N 37°49' W 122°22'0 0.0
2018-May-27 18:30N 37°49' W 122°22'0 0.0
2018-May-27 18:00N 37°49' W 122°22'0 0.0
2018-May-27 17:30N 37°49' W 122°22'0 0.0
2018-May-27 16:30N 37°49' W 122°22'0 0.0
2018-May-27 15:48N 37°49' W 122°22'0 0.0
2018-May-27 15:27N 37°49' W 122°22'0 0.0
2018-May-27 14:57N 37°49' W 122°22'0 0.0
2018-May-27 14:30N 37°49' W 122°22'0 0.0
2018-May-27 14:00N 37°49' W 122°22'0 0.0
2018-May-27 13:27N 37°49' W 122°22'0 0.0
2018-May-27 12:45N 37°49' W 122°22'0 0.0
2018-May-27 12:30N 37°49' W 122°22'0 0.0
2018-May-27 11:48N 37°49' W 122°22'0 0.0
2018-May-27 11:30N 37°49' W 122°22'0 0.0
2018-May-27 11:00N 37°49' W 122°22'0 0.0
2018-May-27 10:30N 37°49' W 122°22'0 0.0
2018-May-27 09:54N 37°49' W 122°22'0 0.0
2018-May-27 09:21N 37°49' W 122°22'0 0.0
2018-May-27 08:51N 37°49' W 122°22'0 0.0
2018-May-27 08:30N 37°49' W 122°22'0 0.0
2018-May-27 07:33N 37°49' W 122°22'0 0.0
2018-May-27 07:30N 37°49' W 122°22'0 0.0
2018-May-27 07:00N 37°49' W 122°22'0 0.0
2018-May-27 06:30N 37°49' W 122°22'0 0.0
2018-May-27 06:00N 37°49' W 122°22'0 0.0
2018-May-27 05:30N 37°49' W 122°22'0 0.0
2018-May-27 04:48N 37°49' W 122°22'0 0.0
2018-May-27 04:30N 37°49' W 122°22'0 0.0
2018-May-27 04:00N 37°49' W 122°22'0 0.0
2018-May-27 03:30N 37°49' W 122°22'0 0.0
2018-May-27 02:57N 37°49' W 122°22'0 0.0
2018-May-27 02:30N 37°49' W 122°22'0 0.0
2018-May-27 01:57N 37°49' W 122°22'0 0.0
2018-May-27 01:27N 37°49' W 122°22'0 0.0
2018-May-27 01:00N 37°49' W 122°22'0 0.0
2018-May-27 00:30N 37°49' W 122°22'0 0.0
2018-May-26 23:57N 37°49' W 122°22'0 0.0
2018-May-26 23:30N 37°49' W 122°22'0 0.0
2018-May-26 22:57N 37°49' W 122°22'0 0.0
2018-May-26 22:00N 37°49' W 122°22'0 0.0
2018-May-26 21:12N 37°49' W 122°22'0 0.0
2018-May-26 21:00N 37°49' W 122°22'0 0.0
2018-May-26 20:30N 37°49' W 122°22'0 0.0
2018-May-26 19:42N 37°49' W 122°22'0 0.0
2018-May-26 19:30N 37°49' W 122°22'0 0.0
2018-May-26 18:56N 37°49' W 122°22'0 0.0
2018-May-26 18:29N 37°49' W 122°22'0 0.0
2018-May-26 17:56N 37°49' W 122°22'0 0.0
2018-May-26 17:25N 37°49' W 122°22'0 0.0
2018-May-26 16:43N 37°49' W 122°22'0 0.0
2018-May-26 16:25N 37°49' W 122°22'0 0.0
2018-May-26 15:55N 37°49' W 122°22'0 0.0
2018-May-26 15:29N 37°49' W 122°22'0 0.0
2018-May-26 14:59N 37°49' W 122°22'0 0.0
2018-May-26 14:29N 37°49' W 122°22'0 0.0
2018-May-26 13:59N 37°49' W 122°22'0 0.0
2018-May-26 13:29N 37°49' W 122°22'0 0.0
2018-May-26 12:59N 37°49' W 122°22'0 0.0
2018-May-26 12:29N 37°49' W 122°22'0 0.0
2018-May-26 11:59N 37°49' W 122°22'0 0.0
2018-May-26 11:29N 37°49' W 122°22'0 0.0
2018-May-26 10:58N 37°49' W 122°22'0 0.0
2018-May-26 10:28N 37°49' W 122°22'0 0.0
2018-May-26 09:52N 37°49' W 122°22'0 0.0
2018-May-26 09:28N 37°49' W 122°22'0 0.0
2018-May-26 08:55N 37°49' W 122°22'0 0.0
2018-May-26 08:25N 37°49' W 122°22'0 0.0
2018-May-26 07:55N 37°49' W 122°22'0 0.0
2018-May-26 06:49N 37°49' W 122°22'0 0.0
2018-May-26 06:25N 37°49' W 122°22'0 0.0
2018-May-26 05:25N 37°49' W 122°22'0 0.0
2018-May-26 04:46N 37°49' W 122°22'0 0.0
2018-May-26 04:16N 37°49' W 122°22'0 0.0
2018-May-26 03:55N 37°49' W 122°22'0 0.0
2018-May-26 03:16N 37°49' W 122°22'0 0.0
2018-May-26 02:58N 37°49' W 122°22'0 0.0
2018-May-26 02:19N 37°49' W 122°22'0 0.0
2018-May-26 01:52N 37°49' W 122°22'0 0.0
2018-May-26 01:30N 37°49' W 122°22'0 0.0
2018-May-26 01:00N 37°49' W 122°22'0 0.0
2018-May-26 00:12N 37°49' W 122°22'0 0.0
2018-May-25 23:54N 37°49' W 122°22'0 0.0
2018-May-25 23:27N 37°49' W 122°22'0 0.0
2018-May-25 23:00N 37°49' W 122°22'0 0.0
2018-May-25 22:27N 37°49' W 122°22'0 0.0
2018-May-25 21:57N 37°49' W 122°22'0 0.0
2018-May-25 21:18N 37°49' W 122°22'0 0.0
2018-May-25 21:00N 37°49' W 122°22'0 0.0
2018-May-25 20:30N 37°49' W 122°22'2 3.4
2018-May-25 20:00N 37°51' W 122°23'4 0.8
2018-May-25 14:35N 37°55' W 122°22'1 6.5
2018-May-25 14:30N 37°55' W 122°22'3 4.1
2018-May-25 13:45N 37°53' W 122°25'2 6.8
2018-May-25 13:30N 37°52' W 122°24'3 5.2
2018-May-25 12:58N 37°49' W 122°22'0 0.2
2018-May-25 12:28N 37°49' W 122°22'0 0.0
2018-May-25 11:58N 37°49' W 122°22'0 0.0
2018-May-25 11:22N 37°49' W 122°22'0 0.0
2018-May-25 10:58N 37°49' W 122°22'0 0.0
2018-May-25 10:25N 37°49' W 122°22'0 0.0
2018-May-25 09:58N 37°49' W 122°22'0 0.0
2018-May-25 09:28N 37°49' W 122°22'0 0.0
2018-May-25 08:58N 37°49' W 122°22'0 0.0
2018-May-25 08:25N 37°49' W 122°22'0 0.0
2018-May-25 07:55N 37°49' W 122°22'0 0.0
2018-May-25 07:28N 37°49' W 122°22'0 0.0
2018-May-25 06:43N 37°49' W 122°22'0 0.0
2018-May-25 06:28N 37°49' W 122°22'0 0.0
2018-May-25 05:49N 37°49' W 122°22'0 0.0
2018-May-25 05:28N 37°49' W 122°22'0 0.0
2018-May-25 04:52N 37°49' W 122°22'0 0.0
2018-May-25 04:13N 37°49' W 122°22'0 0.0
2018-May-25 03:49N 37°49' W 122°22'0 0.0
2018-May-25 03:29N 37°49' W 122°22'0 0.0
2018-May-25 02:53N 37°49' W 122°22'0 0.0
2018-May-25 01:29N 37°49' W 122°22'0 0.0
2018-May-25 00:59N 37°49' W 122°22'0 0.0
2018-May-25 00:17N 37°49' W 122°22'0 0.0
2018-May-24 23:59N 37°49' W 122°22'0 0.0
2018-May-24 23:29N 37°49' W 122°22'0 0.0
2018-May-24 22:59N 37°49' W 122°22'0 0.0
2018-May-24 22:23N 37°49' W 122°22'0 0.0
2018-May-24 21:59N 37°49' W 122°22'0 0.0
2018-May-24 21:26N 37°49' W 122°22'0 0.0
2018-May-24 20:56N 37°49' W 122°22'0 0.0
2018-May-24 20:29N 37°49' W 122°22'0 0.0
2018-May-24 19:59N 37°49' W 122°22'0 0.0
2018-May-24 19:23N 37°49' W 122°22'0 0.0
2018-May-24 18:53N 37°49' W 122°22'0 0.0
2018-May-24 18:29N 37°49' W 122°22'0 0.0
2018-May-24 17:56N 37°49' W 122°22'0 0.0
2018-May-24 17:20N 37°49' W 122°22'0 0.0
2018-May-24 16:59N 37°49' W 122°22'0 0.0
2018-May-24 16:11N 37°49' W 122°22'0 0.0
2018-May-24 15:56N 37°49' W 122°22'0 0.0
2018-May-24 15:30N 37°49' W 122°22'0 0.0
2018-May-24 15:00N 37°49' W 122°22'0 0.0
2018-May-24 14:30N 37°49' W 122°22'0 0.0
2018-May-24 14:00N 37°49' W 122°22'0 0.0
2018-May-24 13:21N 37°49' W 122°22'0 0.0
2018-May-24 08:51N 37°49' W 122°22'0 0.0
2018-May-24 08:27N 37°49' W 122°22'0 0.0
2018-May-24 07:42N 37°49' W 122°22'0 0.0
2018-May-24 07:30N 37°49' W 122°22'0 0.0
2018-May-24 06:45N 37°49' W 122°22'0 0.0
2018-May-24 06:30N 37°49' W 122°22'0 0.0
2018-May-24 06:00N 37°49' W 122°22'0 0.0
2018-May-24 05:27N 37°49' W 122°22'0 0.0
2018-May-24 04:51N 37°49' W 122°22'0 0.0
2018-May-24 04:24N 37°49' W 122°22'0 0.0
2018-May-24 04:00N 37°49' W 122°22'0 0.0
2018-May-24 03:30N 37°49' W 122°22'0 0.0
2018-May-24 02:48N 37°49' W 122°22'0 0.0
2018-May-24 02:24N 37°49' W 122°22'0 0.0
2018-May-24 01:57N 37°49' W 122°22'0 0.0
2018-May-24 01:03N 37°49' W 122°22'0 0.0
2018-May-24 01:00N 37°49' W 122°22'0 0.0
2018-May-24 00:24N 37°49' W 122°22'0 0.0
2018-May-23 23:57N 37°49' W 122°22'0 0.0
2018-May-23 23:30N 37°49' W 122°22'0 0.0
2018-May-23 23:00N 37°49' W 122°22'0 0.0
2018-May-23 22:27N 37°49' W 122°22'0 0.0
2018-May-23 21:54N 37°49' W 122°22'0 0.0
2018-May-23 21:30N 37°49' W 122°22'0 0.0
2018-May-23 21:00N 37°49' W 122°22'0 0.0
2018-May-23 20:30N 37°49' W 122°22'0 0.0
2018-May-23 19:54N 37°49' W 122°22'0 0.0
2018-May-23 19:30N 37°49' W 122°22'0 0.0
2018-May-23 18:57N 37°49' W 122°22'0 0.0
2018-May-23 18:24N 37°49' W 122°22'0 0.0
2018-May-23 18:00N 37°49' W 122°22'0 0.0
2018-May-23 17:30N 37°49' W 122°22'0 0.0
2018-May-23 16:54N 37°49' W 122°22'0 0.0
2018-May-23 16:27N 37°49' W 122°22'0 0.0
2018-May-23 15:54N 37°49' W 122°22'0 0.0
2018-May-23 15:21N 37°49' W 122°22'0 0.0
2018-May-23 12:36N 37°49' W 122°22'0 0.0
2018-May-23 12:30N 37°49' W 122°22'0 0.0
2018-May-23 12:00N 37°49' W 122°22'0 0.0
2018-May-23 11:15N 37°49' W 122°22'0 0.0
2018-May-23 10:54N 37°49' W 122°22'0 0.0
2018-May-23 10:30N 37°49' W 122°22'0 0.0
2018-May-23 10:00N 37°49' W 122°22'0 0.0
2018-May-23 09:30N 37°49' W 122°22'0 0.0
2018-May-23 09:00N 37°49' W 122°22'0 0.0
2018-May-23 08:30N 37°49' W 122°22'0 0.0
2018-May-23 08:00N 37°49' W 122°22'0 0.0
2018-May-23 07:30N 37°49' W 122°22'0 0.0
2018-May-23 07:00N 37°49' W 122°22'0 0.0
2018-May-23 06:30N 37°49' W 122°22'0 0.0
2018-May-23 05:54N 37°49' W 122°22'0 0.0
2018-May-23 05:30N 37°49' W 122°22'0 0.0
2018-May-23 05:00N 37°49' W 122°22'0 0.0
2018-May-23 04:30N 37°49' W 122°22'0 0.0
2018-May-23 04:00N 37°49' W 122°22'0 0.0
2018-May-23 03:30N 37°49' W 122°22'0 0.0
2018-May-23 03:00N 37°49' W 122°22'0 0.0
2018-May-23 02:24N 37°49' W 122°22'0 0.0
2018-May-23 01:57N 37°49' W 122°22'0 0.0
2018-May-23 01:30N 37°49' W 122°22'0 0.0
2018-May-23 01:00N 37°49' W 122°22'0 0.0
2018-May-23 00:12N 37°49' W 122°22'0 0.0
2018-May-23 00:00N 37°49' W 122°22'0 0.0
2018-May-22 23:18N 37°49' W 122°22'0 0.0
2018-May-22 23:00N 37°49' W 122°22'0 0.0
2018-May-22 22:24N 37°49' W 122°22'0 0.0
2018-May-22 22:00N 37°49' W 122°22'0 0.0
2018-May-22 21:30N 37°49' W 122°22'0 0.0
2018-May-22 21:00N 37°49' W 122°22'0 0.0
2018-May-22 20:30N 37°49' W 122°22'0 0.0
2018-May-22 20:00N 37°49' W 122°22'0 0.0
2018-May-22 19:30N 37°49' W 122°22'0 0.0
2018-May-22 19:00N 37°49' W 122°22'0 0.0
2018-May-22 18:27N 37°49' W 122°22'0 0.0
2018-May-22 18:00N 37°49' W 122°22'0 0.0
2018-May-22 17:30N 37°49' W 122°22'0 0.0
2018-May-22 17:00N 37°49' W 122°22'0 0.0
2018-May-22 16:24N 37°49' W 122°22'0 0.0
2018-May-22 16:00N 37°49' W 122°22'0 0.0
2018-May-22 15:30N 37°49' W 122°22'0 0.0
2018-May-22 15:00N 37°49' W 122°22'0 0.0
2018-May-22 14:06N 37°49' W 122°22'0 0.0
2018-May-22 14:00N 37°49' W 122°22'0 0.0
2018-May-22 13:24N 37°49' W 122°22'0 0.0
2018-May-22 13:00N 37°49' W 122°22'0 0.0
2018-May-22 12:30N 37°49' W 122°22'0 0.0
2018-May-22 11:54N 37°49' W 122°22'0 0.0
2018-May-22 11:30N 37°49' W 122°22'0 0.0
2018-May-22 10:48N 37°49' W 122°22'0 0.0
2018-May-22 10:30N 37°49' W 122°22'0 0.0
2018-May-22 10:00N 37°49' W 122°22'0 0.0
2018-May-22 09:30N 37°49' W 122°22'0 0.0
2018-May-22 09:00N 37°49' W 122°22'0 0.0
2018-May-22 08:30N 37°49' W 122°22'0 0.0
2018-May-22 08:00N 37°49' W 122°22'0 0.0
2018-May-22 07:24N 37°49' W 122°22'0 0.0
2018-May-22 07:00N 37°49' W 122°22'0 0.0
2018-May-22 06:30N 37°49' W 122°22'0 0.0
2018-May-22 05:57N 37°49' W 122°22'0 0.0
2018-May-22 05:30N 37°49' W 122°22'0 0.0
2018-May-22 05:00N 37°49' W 122°22'0 0.0
2018-May-22 04:24N 37°49' W 122°22'0 0.0
2018-May-22 03:51N 37°49' W 122°22'0 0.0
2018-May-22 03:30N 37°49' W 122°22'0 0.0
2018-May-22 03:00N 37°49' W 122°22'0 0.0
2018-May-22 02:30N 37°49' W 122°22'0 0.0
2018-May-22 02:00N 37°49' W 122°22'0 0.0
2018-May-22 01:30N 37°49' W 122°22'0 0.0
2018-May-22 00:57N 37°49' W 122°22'0 0.1
2018-May-22 00:30N 37°49' W 122°22'0 0.0
2018-May-21 23:57N 37°49' W 122°22'0 0.0
2018-May-21 23:28N 37°49' W 122°22'0 0.0
2018-May-21 22:55N 37°49' W 122°22'0 0.0
2018-May-21 22:28N 37°49' W 122°22'0 0.0
2018-May-21 21:58N 37°49' W 122°22'0 0.0
2018-May-21 21:25N 37°49' W 122°22'0 0.0
2018-May-21 20:55N 37°49' W 122°22'0 0.0
2018-May-21 20:29N 37°49' W 122°22'0 0.0
2018-May-21 19:59N 37°49' W 122°22'0 0.0
2018-May-21 19:26N 37°49' W 122°22'0 0.0
2018-May-21 18:59N 37°49' W 122°22'0 0.0
2018-May-21 18:31N 37°49' W 122°22'0 0.0
2018-May-21 17:58N 37°49' W 122°22'0 0.0
2018-May-21 17:28N 37°49' W 122°22'0 0.0
2018-May-21 16:55N 37°49' W 122°22'0 0.0
2018-May-21 16:28N 37°49' W 122°22'0 0.0
2018-May-21 15:46N 37°49' W 122°22'0 0.0
2018-May-21 15:25N 37°49' W 122°22'0 0.0
2018-May-21 14:58N 37°49' W 122°22'0 0.0
2018-May-21 14:25N 37°49' W 122°22'0 0.0
2018-May-21 13:58N 37°49' W 122°22'0 0.0
2018-May-21 13:25N 37°49' W 122°22'0 0.0
2018-May-21 12:55N 37°49' W 122°22'0 0.0
2018-May-21 12:28N 37°49' W 122°22'0 0.0
2018-May-21 11:58N 37°49' W 122°22'0 0.0
2018-May-21 11:28N 37°49' W 122°22'0 0.0
2018-May-21 10:55N 37°49' W 122°22'0 0.0
2018-May-21 10:25N 37°49' W 122°22'0 0.0
2018-May-21 09:58N 37°49' W 122°22'0 0.0
2018-May-21 09:25N 37°49' W 122°22'0 0.0
2018-May-21 08:58N 37°49' W 122°22'0 0.0
2018-May-21 08:28N 37°49' W 122°22'0 0.0
2018-May-21 07:55N 37°49' W 122°22'0 0.0
2018-May-21 07:28N 37°49' W 122°22'0 0.0
2018-May-21 06:49N 37°49' W 122°22'0 0.0
2018-May-21 06:25N 37°49' W 122°22'0 0.0
2018-May-21 05:55N 37°49' W 122°22'0 0.0
2018-May-21 05:28N 37°49' W 122°22'0 0.0
2018-May-21 04:52N 37°49' W 122°22'0 0.0
2018-May-21 04:28N 37°49' W 122°22'2 3.7
2018-May-21 03:59N 37°49' W 122°24'1 2.4
2018-May-21 03:30N 37°49' W 122°25'0 0.0
2018-May-21 02:54N 37°49' W 122°25'0 0.0
2018-May-21 02:30N 37°49' W 122°25'0 0.0
2018-May-21 02:00N 37°49' W 122°25'0 0.0
2018-May-21 01:30N 37°49' W 122°25'0 0.0
2018-May-21 01:00N 37°49' W 122°25'0 0.0
2018-May-21 00:30N 37°49' W 122°25'0 0.0
2018-May-21 00:00N 37°49' W 122°25'0 0.0
2018-May-20 23:24N 37°49' W 122°25'0 0.0
2018-May-20 22:51N 37°49' W 122°25'0 0.0
2018-May-20 22:30N 37°49' W 122°25'0 0.0
2018-May-20 21:58N 37°49' W 122°25'0 0.0
2018-May-20 21:28N 37°49' W 122°25'0 0.0
2018-May-20 20:49N 37°49' W 122°25'0 0.2
2018-May-20 20:30N 37°49' W 122°25'0 0.0
2018-May-20 20:00N 37°49' W 122°25'0 0.0
2018-May-20 19:30N 37°49' W 122°25'0 0.0
2018-May-20 19:00N 37°49' W 122°25'0 0.0
2018-May-20 18:30N 37°49' W 122°25'0 0.0
2018-May-20 18:00N 37°49' W 122°25'0 0.0
2018-May-20 17:30N 37°49' W 122°25'0 0.0
2018-May-20 17:00N 37°49' W 122°25'0 0.0
2018-May-20 16:30N 37°49' W 122°25'0 0.0
2018-May-20 16:00N 37°49' W 122°25'0 0.0
2018-May-20 15:30N 37°49' W 122°25'0 0.1
2018-May-20 15:00N 37°49' W 122°25'0 0.1
2018-May-20 14:30N 37°49' W 122°25'0 0.1
2018-May-20 14:00N 37°49' W 122°25'0 0.0
2018-May-20 13:30N 37°49' W 122°25'0 0.0
2018-May-20 13:00N 37°49' W 122°25'0 0.0
2018-May-20 12:30N 37°49' W 122°25'2 4.5
2018-May-20 12:00N 37°50' W 122°23'1 2.2
2018-May-20 11:28N 37°49' W 122°22'0 0.0
2018-May-20 10:58N 37°49' W 122°22'0 0.0
2018-May-20 10:28N 37°49' W 122°22'0 0.0
2018-May-20 09:58N 37°49' W 122°22'0 0.0
2018-May-20 09:28N 37°49' W 122°22'0 0.0
2018-May-20 08:58N 37°49' W 122°22'0 0.0
2018-May-20 08:28N 37°49' W 122°22'0 0.0
2018-May-20 07:58N 37°49' W 122°22'  
Track history (hours):
 
Tides and Currents Weather Stations Pressure Air Temp Water Temp Dewpoint Dewpoint Depression Visibility Wind Speed Wind Dir Waves Ship Positions

Sea Queen IIa

Owner: NGUYEN, THOAI V, SAN JOSE, CA. More information available from US FCC via Universal Licensing System and Coast Guard Vessel Documentation Center.

Last reported at 2018-May-30 07:35 UTC. Time now 2018-Jun-20 04:04 UTC.
Position N 37°27' W 122°41'.
Warning: this ship's position is 20 days out of date.

Length 26 m.

Type: Fishing. MMSI: 367593450.

Date/timePositionNaut miles runAvg speedWind from/ knotsBaromVisibWave heightAir tempDewpointWater temp
2018-May-30 07:35N 37°27' W 122°41'1 8.0
2018-May-30 07:30N 37°27' W 122°41'2 2.8
2018-May-30 06:54N 37°29' W 122°39'1 3.4
2018-May-30 06:30N 37°30' W 122°39'0 0.3
2018-May-30 05:47N 37°30' W 122°39'0 0.7
2018-May-30 05:25N 37°30' W 122°39'2 3.0
2018-May-30 04:54N 37°32' W 122°39'16 7.2
2018-May-30 02:37N 37°48' W 122°32'1 7.2
2018-May-30 02:28N 37°48' W 122°31'4 7.6
2018-May-30 02:00N 37°49' W 122°27'1 2.5
2018-May-30 01:30N 37°49' W 122°25'0 0.0
2018-May-30 01:00N 37°49' W 122°25'0 0.0
2018-May-30 00:30N 37°49' W 122°25'0 0.0
2018-May-30 00:00N 37°49' W 122°25'0 0.0
2018-May-29 23:30N 37°49' W 122°25'0 0.0
2018-May-29 23:00N 37°49' W 122°25'0 0.0
2018-May-29 22:30N 37°49' W 122°25'0 0.0
2018-May-29 21:55N 37°49' W 122°25'0 0.0
2018-May-29 21:28N 37°49' W 122°25'0 0.0
2018-May-29 20:58N 37°49' W 122°25'0 0.0
2018-May-29 20:28N 37°49' W 122°25'0 0.0
2018-May-29 19:58N 37°49' W 122°25'0 0.0
2018-May-29 19:28N 37°49' W 122°25'0 0.0
2018-May-29 18:58N 37°49' W 122°25'0 0.0
2018-May-29 18:25N 37°49' W 122°25'0 0.0
2018-May-29 17:52N 37°49' W 122°25'0 0.0
2018-May-29 17:25N 37°49' W 122°25'0 0.0
2018-May-29 16:55N 37°49' W 122°25'0 0.0
2018-May-29 16:28N 37°49' W 122°25'0 0.0
2018-May-29 15:58N 37°49' W 122°25'0 0.0
2018-May-29 15:28N 37°49' W 122°25'0 0.0
2018-May-29 14:58N 37°49' W 122°25'0 0.0
2018-May-29 14:28N 37°49' W 122°25'0 0.0
2018-May-29 13:58N 37°49' W 122°25'0 0.1
2018-May-29 13:30N 37°49' W 122°25'3 5.5
2018-May-29 12:59N 37°49' W 122°22'0 0.2
2018-May-29 12:27N 37°49' W 122°22'0 0.0
2018-May-29 12:00N 37°49' W 122°22'0 0.0
2018-May-29 11:18N 37°49' W 122°22'0 0.0
2018-May-29 11:00N 37°49' W 122°22'0 0.0
2018-May-29 10:27N 37°49' W 122°22'0 0.0
2018-May-29 09:54N 37°49' W 122°22'0 0.0
2018-May-29 09:30N 37°49' W 122°22'0 0.0
2018-May-29 08:54N 37°49' W 122°22'0 0.0
2018-May-29 08:24N 37°49' W 122°22'0 0.0
2018-May-29 06:30N 37°49' W 122°22'0 0.0
2018-May-29 05:30N 37°49' W 122°22'0 0.0
2018-May-29 05:00N 37°49' W 122°22'0 0.0
2018-May-29 04:27N 37°49' W 122°22'0 0.0
2018-May-29 04:00N 37°49' W 122°22'0 0.0
2018-May-29 03:21N 37°49' W 122°22'0 0.0
2018-May-29 03:00N 37°49' W 122°22'0 0.0
2018-May-29 02:18N 37°49' W 122°22'0 0.0
2018-May-29 02:00N 37°49' W 122°22'0 0.0
2018-May-29 01:30N 37°49' W 122°22'0 0.0
2018-May-29 00:48N 37°49' W 122°22'0 0.0
2018-May-29 00:30N 37°49' W 122°22'0 0.0
2018-May-28 23:51N 37°49' W 122°22'0 0.0
2018-May-28 23:30N 37°49' W 122°22'0 0.0
2018-May-28 23:00N 37°49' W 122°22'0 0.0
2018-May-28 22:30N 37°49' W 122°22'0 0.0
2018-May-28 22:00N 37°49' W 122°22'0 0.0
2018-May-28 21:27N 37°49' W 122°22'0 0.0
2018-May-28 20:57N 37°49' W 122°22'0 0.0
2018-May-28 20:27N 37°49' W 122°22'0 0.0
2018-May-28 20:00N 37°49' W 122°22'0 0.0
2018-May-28 19:27N 37°49' W 122°22'0 0.0
2018-May-28 19:00N 37°49' W 122°22'0 0.0
2018-May-28 18:27N 37°49' W 122°22'0 0.0
2018-May-28 18:00N 37°49' W 122°22'0 0.0
2018-May-28 17:30N 37°49' W 122°22'0 0.0
2018-May-28 16:54N 37°49' W 122°22'0 0.0
2018-May-28 16:30N 37°49' W 122°22'0 0.0
2018-May-28 16:00N 37°49' W 122°22'0 0.0
2018-May-28 15:30N 37°49' W 122°22'0 0.0
2018-May-28 15:00N 37°49' W 122°22'0 0.0
2018-May-28 14:27N 37°49' W 122°22'0 0.0
2018-May-28 14:00N 37°49' W 122°22'0 0.0
2018-May-28 13:30N 37°49' W 122°22'0 0.0
2018-May-28 13:00N 37°49' W 122°22'0 0.0
2018-May-28 12:24N 37°49' W 122°22'0 0.0
2018-May-28 12:00N 37°49' W 122°22'0 0.0
2018-May-28 11:27N 37°49' W 122°22'0 0.0
2018-May-28 11:00N 37°49' W 122°22'0 0.0
2018-May-28 10:30N 37°49' W 122°22'0 0.0
2018-May-28 09:54N 37°49' W 122°22'0 0.0
2018-May-28 09:30N 37°49' W 122°22'0 0.0
2018-May-28 09:00N 37°49' W 122°22'0 0.0
2018-May-28 08:18N 37°49' W 122°22'0 0.0
2018-May-28 08:00N 37°49' W 122°22'0 0.0
2018-May-28 07:30N 37°49' W 122°22'0 0.0
2018-May-28 07:00N 37°49' W 122°22'0 0.0
2018-May-28 06:24N 37°49' W 122°22'0 0.0
2018-May-28 06:00N 37°49' W 122°22'0 0.0
2018-May-28 05:30N 37°49' W 122°22'0 0.0
2018-May-28 04:21N 37°49' W 122°22'0 0.0
2018-May-28 03:57N 37°49' W 122°22'0 0.0
2018-May-28 03:30N 37°49' W 122°22'0 0.0
2018-May-28 03:00N 37°49' W 122°22'0 0.0
2018-May-28 02:30N 37°49' W 122°22'0 0.0
2018-May-28 01:54N 37°49' W 122°22'0 0.0
2018-May-28 01:30N 37°49' W 122°22'0 0.0
2018-May-28 01:00N 37°49' W 122°22'0 0.0
2018-May-28 00:30N 37°49' W 122°22'0 0.0
2018-May-28 00:00N 37°49' W 122°22'0 0.0
2018-May-27 23:18N 37°49' W 122°22'0 0.0
2018-May-27 23:00N 37°49' W 122°22'0 0.0
2018-May-27 22:24N 37°49' W 122°22'0 0.0
2018-May-27 22:00N 37°49' W 122°22'0 0.0
2018-May-27 21:12N 37°49' W 122°22'0 0.0
2018-May-27 20:54N 37°49' W 122°22'0 0.0
2018-May-27 20:27N 37°49' W 122°22'0 0.0
2018-May-27 20:00N 37°49' W 122°22'0 0.0
2018-May-27 19:24N 37°49' W 122°22'0 0.0
2018-May-27 19:00N 37°49' W 122°22'0 0.0
2018-May-27 18:30N 37°49' W 122°22'0 0.0
2018-May-27 18:00N 37°49' W 122°22'0 0.0
2018-May-27 17:30N 37°49' W 122°22'0 0.0
2018-May-27 16:30N 37°49' W 122°22'0 0.0
2018-May-27 15:48N 37°49' W 122°22'0 0.0
2018-May-27 15:27N 37°49' W 122°22'0 0.0
2018-May-27 14:57N 37°49' W 122°22'0 0.0
2018-May-27 14:30N 37°49' W 122°22'0 0.0
2018-May-27 14:00N 37°49' W 122°22'0 0.0
2018-May-27 13:27N 37°49' W 122°22'0 0.0
2018-May-27 12:45N 37°49' W 122°22'0 0.0
2018-May-27 12:30N 37°49' W 122°22'0 0.0
2018-May-27 11:48N 37°49' W 122°22'0 0.0
2018-May-27 11:30N 37°49' W 122°22'0 0.0
2018-May-27 11:00N 37°49' W 122°22'0 0.0
2018-May-27 10:30N 37°49' W 122°22'0 0.0
2018-May-27 09:54N 37°49' W 122°22'0 0.0
2018-May-27 09:21N 37°49' W 122°22'0 0.0
2018-May-27 08:51N 37°49' W 122°22'0 0.0
2018-May-27 08:30N 37°49' W 122°22'0 0.0
2018-May-27 07:33N 37°49' W 122°22'0 0.0
2018-May-27 07:30N 37°49' W 122°22'0 0.0
2018-May-27 07:00N 37°49' W 122°22'0 0.0
2018-May-27 06:30N 37°49' W 122°22'0 0.0
2018-May-27 06:00N 37°49' W 122°22'0 0.0
2018-May-27 05:30N 37°49' W 122°22'0 0.0
2018-May-27 04:48N 37°49' W 122°22'0 0.0
2018-May-27 04:30N 37°49' W 122°22'0 0.0
2018-May-27 04:00N 37°49' W 122°22'0 0.0
2018-May-27 03:30N 37°49' W 122°22'0 0.0
2018-May-27 02:57N 37°49' W 122°22'0 0.0
2018-May-27 02:30N 37°49' W 122°22'0 0.0
2018-May-27 01:57N 37°49' W 122°22'0 0.0
2018-May-27 01:27N 37°49' W 122°22'0 0.0
2018-May-27 01:00N 37°49' W 122°22'0 0.0
2018-May-27 00:30N 37°49' W 122°22'0 0.0
2018-May-26 23:57N 37°49' W 122°22'0 0.0
2018-May-26 23:30N 37°49' W 122°22'0 0.0
2018-May-26 22:57N 37°49' W 122°22'0 0.0
2018-May-26 22:00N 37°49' W 122°22'0 0.0
2018-May-26 21:12N 37°49' W 122°22'0 0.0
2018-May-26 21:00N 37°49' W 122°22'0 0.0
2018-May-26 20:30N 37°49' W 122°22'0 0.0
2018-May-26 19:42N 37°49' W 122°22'0 0.0
2018-May-26 19:30N 37°49' W 122°22'0 0.0
2018-May-26 18:56N 37°49' W 122°22'0 0.0
2018-May-26 18:29N 37°49' W 122°22'0 0.0
2018-May-26 17:56N 37°49' W 122°22'0 0.0
2018-May-26 17:25N 37°49' W 122°22'0 0.0
2018-May-26 16:43N 37°49' W 122°22'0 0.0
2018-May-26 16:25N 37°49' W 122°22'0 0.0
2018-May-26 15:55N 37°49' W 122°22'0 0.0
2018-May-26 15:29N 37°49' W 122°22'0 0.0
2018-May-26 14:59N 37°49' W 122°22'0 0.0
2018-May-26 14:29N 37°49' W 122°22'0 0.0
2018-May-26 13:59N 37°49' W 122°22'0 0.0
2018-May-26 13:29N 37°49' W 122°22'0 0.0
2018-May-26 12:59N 37°49' W 122°22'0 0.0
2018-May-26 12:29N 37°49' W 122°22'0 0.0
2018-May-26 11:59N 37°49' W 122°22'0 0.0
2018-May-26 11:29N 37°49' W 122°22'0 0.0
2018-May-26 10:58N 37°49' W 122°22'0 0.0
2018-May-26 10:28N 37°49' W 122°22'0 0.0
2018-May-26 09:52N 37°49' W 122°22'0 0.0
2018-May-26 09:28N 37°49' W 122°22'0 0.0
2018-May-26 08:55N 37°49' W 122°22'0 0.0
2018-May-26 08:25N 37°49' W 122°22'0 0.0
2018-May-26 07:55N 37°49' W 122°22'0 0.0
2018-May-26 06:49N 37°49' W 122°22'0 0.0
2018-May-26 06:25N 37°49' W 122°22'0 0.0
2018-May-26 05:25N 37°49' W 122°22'0 0.0
2018-May-26 04:46N 37°49' W 122°22'0 0.0
2018-May-26 04:16N 37°49' W 122°22'0 0.0
2018-May-26 03:55N 37°49' W 122°22'0 0.0
2018-May-26 03:16N 37°49' W 122°22'0 0.0
2018-May-26 02:58N 37°49' W 122°22'0 0.0
2018-May-26 02:19N 37°49' W 122°22'0 0.0
2018-May-26 01:52N 37°49' W 122°22'0 0.0
2018-May-26 01:30N 37°49' W 122°22'0 0.0
2018-May-26 01:00N 37°49' W 122°22'0 0.0
2018-May-26 00:12N 37°49' W 122°22'0 0.0
2018-May-25 23:54N 37°49' W 122°22'0 0.0
2018-May-25 23:27N 37°49' W 122°22'0 0.0
2018-May-25 23:00N 37°49' W 122°22'0 0.0
2018-May-25 22:27N 37°49' W 122°22'0 0.0
2018-May-25 21:57N 37°49' W 122°22'0 0.0
2018-May-25 21:18N 37°49' W 122°22'0 0.0
2018-May-25 21:00N 37°49' W 122°22'0 0.0
2018-May-25 20:30N 37°49' W 122°22'2 3.4
2018-May-25 20:00N 37°51' W 122°23'4 0.8
2018-May-25 14:35N 37°55' W 122°22'1 6.5
2018-May-25 14:30N 37°55' W 122°22'3 4.1
2018-May-25 13:45N 37°53' W 122°25'2 6.8
2018-May-25 13:30N 37°52' W 122°24'3 5.2
2018-May-25 12:58N 37°49' W 122°22'0 0.2
2018-May-25 12:28N 37°49' W 122°22'0 0.0
2018-May-25 11:58N 37°49' W 122°22'0 0.0
2018-May-25 11:22N 37°49' W 122°22'0 0.0
2018-May-25 10:58N 37°49' W 122°22'0 0.0
2018-May-25 10:25N 37°49' W 122°22'0 0.0
2018-May-25 09:58N 37°49' W 122°22'0 0.0
2018-May-25 09:28N 37°49' W 122°22'0 0.0
2018-May-25 08:58N 37°49' W 122°22'0 0.0
2018-May-25 08:25N 37°49' W 122°22'0 0.0
2018-May-25 07:55N 37°49' W 122°22'0 0.0
2018-May-25 07:28N 37°49' W 122°22'0 0.0
2018-May-25 06:43N 37°49' W 122°22'0 0.0
2018-May-25 06:28N 37°49' W 122°22'0 0.0
2018-May-25 05:49N 37°49' W 122°22'0 0.0
2018-May-25 05:28N 37°49' W 122°22'0 0.0
2018-May-25 04:52N 37°49' W 122°22'0 0.0
2018-May-25 04:13N 37°49' W 122°22'0 0.0
2018-May-25 03:49N 37°49' W 122°22'0 0.0
2018-May-25 03:29N 37°49' W 122°22'0 0.0
2018-May-25 02:53N 37°49' W 122°22'0 0.0
2018-May-25 01:29N 37°49' W 122°22'0 0.0
2018-May-25 00:59N 37°49' W 122°22'0 0.0
2018-May-25 00:17N 37°49' W 122°22'0 0.0
2018-May-24 23:59N 37°49' W 122°22'0 0.0
2018-May-24 23:29N 37°49' W 122°22'0 0.0
2018-May-24 22:59N 37°49' W 122°22'0 0.0
2018-May-24 22:23N 37°49' W 122°22'0 0.0
2018-May-24 21:59N 37°49' W 122°22'0 0.0
2018-May-24 21:26N 37°49' W 122°22'0 0.0
2018-May-24 20:56N 37°49' W 122°22'0 0.0
2018-May-24 20:29N 37°49' W 122°22'0 0.0
2018-May-24 19:59N 37°49' W 122°22'0 0.0
2018-May-24 19:23N 37°49' W 122°22'0 0.0
2018-May-24 18:53N 37°49' W 122°22'0 0.0
2018-May-24 18:29N 37°49' W 122°22'0 0.0
2018-May-24 17:56N 37°49' W 122°22'0 0.0
2018-May-24 17:20N 37°49' W 122°22'0 0.0
2018-May-24 16:59N 37°49' W 122°22'0 0.0
2018-May-24 16:11N 37°49' W 122°22'0 0.0
2018-May-24 15:56N 37°49' W 122°22'0 0.0
2018-May-24 15:30N 37°49' W 122°22'0 0.0
2018-May-24 15:00N 37°49' W 122°22'0 0.0
2018-May-24 14:30N 37°49' W 122°22'0 0.0
2018-May-24 14:00N 37°49' W 122°22'0 0.0
2018-May-24 13:21N 37°49' W 122°22'0 0.0
2018-May-24 08:51N 37°49' W 122°22'0 0.0
2018-May-24 08:27N 37°49' W 122°22'0 0.0
2018-May-24 07:42N 37°49' W 122°22'0 0.0
2018-May-24 07:30N 37°49' W 122°22'0 0.0
2018-May-24 06:45N 37°49' W 122°22'0 0.0
2018-May-24 06:30N 37°49' W 122°22'0 0.0
2018-May-24 06:00N 37°49' W 122°22'0 0.0
2018-May-24 05:27N 37°49' W 122°22'0 0.0
2018-May-24 04:51N 37°49' W 122°22'0 0.0
2018-May-24 04:24N 37°49' W 122°22'0 0.0
2018-May-24 04:00N 37°49' W 122°22'0 0.0
2018-May-24 03:30N 37°49' W 122°22'0 0.0
2018-May-24 02:48N 37°49' W 122°22'0 0.0
2018-May-24 02:24N 37°49' W 122°22'0 0.0
2018-May-24 01:57N 37°49' W 122°22'0 0.0
2018-May-24 01:03N 37°49' W 122°22'0 0.0
2018-May-24 01:00N 37°49' W 122°22'0 0.0
2018-May-24 00:24N 37°49' W 122°22'0 0.0
2018-May-23 23:57N 37°49' W 122°22'0 0.0
2018-May-23 23:30N 37°49' W 122°22'0 0.0
2018-May-23 23:00N 37°49' W 122°22'0 0.0
2018-May-23 22:27N 37°49' W 122°22'0 0.0
2018-May-23 21:54N 37°49' W 122°22'0 0.0
2018-May-23 21:30N 37°49' W 122°22'0 0.0
2018-May-23 21:00N 37°49' W 122°22'0 0.0
2018-May-23 20:30N 37°49' W 122°22'0 0.0
2018-May-23 19:54N 37°49' W 122°22'0 0.0
2018-May-23 19:30N 37°49' W 122°22'0 0.0
2018-May-23 18:57N 37°49' W 122°22'0 0.0
2018-May-23 18:24N 37°49' W 122°22'0 0.0
2018-May-23 18:00N 37°49' W 122°22'0 0.0
2018-May-23 17:30N 37°49' W 122°22'0 0.0
2018-May-23 16:54N 37°49' W 122°22'0 0.0
2018-May-23 16:27N 37°49' W 122°22'0 0.0
2018-May-23 15:54N 37°49' W 122°22'0 0.0
2018-May-23 15:21N 37°49' W 122°22'0 0.0
2018-May-23 12:36N 37°49' W 122°22'0 0.0
2018-May-23 12:30N 37°49' W 122°22'0 0.0
2018-May-23 12:00N 37°49' W 122°22'0 0.0
2018-May-23 11:15N 37°49' W 122°22'0 0.0
2018-May-23 10:54N 37°49' W 122°22'0 0.0
2018-May-23 10:30N 37°49' W 122°22'0 0.0
2018-May-23 10:00N 37°49' W 122°22'0 0.0
2018-May-23 09:30N 37°49' W 122°22'0 0.0
2018-May-23 09:00N 37°49' W 122°22'0 0.0
2018-May-23 08:30N 37°49' W 122°22'0 0.0
2018-May-23 08:00N 37°49' W 122°22'0 0.0
2018-May-23 07:30N 37°49' W 122°22'0 0.0
2018-May-23 07:00N 37°49' W 122°22'0 0.0
2018-May-23 06:30N 37°49' W 122°22'0 0.0
2018-May-23 05:54N 37°49' W 122°22'0 0.0
2018-May-23 05:30N 37°49' W 122°22'0 0.0
2018-May-23 05:00N 37°49' W 122°22'0 0.0
2018-May-23 04:30N 37°49' W 122°22'0 0.0
2018-May-23 04:00N 37°49' W 122°22'0 0.0
2018-May-23 03:30N 37°49' W 122°22'0 0.0
2018-May-23 03:00N 37°49' W 122°22'0 0.0
2018-May-23 02:24N 37°49' W 122°22'0 0.0
2018-May-23 01:57N 37°49' W 122°22'0 0.0
2018-May-23 01:30N 37°49' W 122°22'0 0.0
2018-May-23 01:00N 37°49' W 122°22'0 0.0
2018-May-23 00:12N 37°49' W 122°22'0 0.0
2018-May-23 00:00N 37°49' W 122°22'0 0.0
2018-May-22 23:18N 37°49' W 122°22'0 0.0
2018-May-22 23:00N 37°49' W 122°22'0 0.0
2018-May-22 22:24N 37°49' W 122°22'0 0.0
2018-May-22 22:00N 37°49' W 122°22'0 0.0
2018-May-22 21:30N 37°49' W 122°22'0 0.0
2018-May-22 21:00N 37°49' W 122°22'0 0.0
2018-May-22 20:30N 37°49' W 122°22'0 0.0
2018-May-22 20:00N 37°49' W 122°22'0 0.0
2018-May-22 19:30N 37°49' W 122°22'0 0.0
2018-May-22 19:00N 37°49' W 122°22'0 0.0
2018-May-22 18:27N 37°49' W 122°22'0 0.0
2018-May-22 18:00N 37°49' W 122°22'0 0.0
2018-May-22 17:30N 37°49' W 122°22'0 0.0
2018-May-22 17:00N 37°49' W 122°22'0 0.0
2018-May-22 16:24N 37°49' W 122°22'0 0.0
2018-May-22 16:00N 37°49' W 122°22'0 0.0
2018-May-22 15:30N 37°49' W 122°22'0 0.0
2018-May-22 15:00N 37°49' W 122°22'0 0.0
2018-May-22 14:06N 37°49' W 122°22'0 0.0
2018-May-22 14:00N 37°49' W 122°22'0 0.0
2018-May-22 13:24N 37°49' W 122°22'0 0.0
2018-May-22 13:00N 37°49' W 122°22'0 0.0
2018-May-22 12:30N 37°49' W 122°22'0 0.0
2018-May-22 11:54N 37°49' W 122°22'0 0.0
2018-May-22 11:30N 37°49' W 122°22'0 0.0
2018-May-22 10:48N 37°49' W 122°22'0 0.0
2018-May-22 10:30N 37°49' W 122°22'0 0.0
2018-May-22 10:00N 37°49' W 122°22'0 0.0
2018-May-22 09:30N 37°49' W 122°22'0 0.0
2018-May-22 09:00N 37°49' W 122°22'0 0.0
2018-May-22 08:30N 37°49' W 122°22'0 0.0
2018-May-22 08:00N 37°49' W 122°22'0 0.0
2018-May-22 07:24N 37°49' W 122°22'0 0.0
2018-May-22 07:00N 37°49' W 122°22'0 0.0
2018-May-22 06:30N 37°49' W 122°22'0 0.0
2018-May-22 05:57N 37°49' W 122°22'0 0.0
2018-May-22 05:30N 37°49' W 122°22'0 0.0
2018-May-22 05:00N 37°49' W 122°22'0 0.0
2018-May-22 04:24N 37°49' W 122°22'0 0.0
2018-May-22 03:51N 37°49' W 122°22'0 0.0
2018-May-22 03:30N 37°49' W 122°22'0 0.0
2018-May-22 03:00N 37°49' W 122°22'0 0.0
2018-May-22 02:30N 37°49' W 122°22'0 0.0
2018-May-22 02:00N 37°49' W 122°22'0 0.0
2018-May-22 01:30N 37°49' W 122°22'0 0.0
2018-May-22 00:57N 37°49' W 122°22'0 0.1
2018-May-22 00:30N 37°49' W 122°22'0 0.0
2018-May-21 23:57N 37°49' W 122°22'0 0.0
2018-May-21 23:28N 37°49' W 122°22'0 0.0
2018-May-21 22:55N 37°49' W 122°22'0 0.0
2018-May-21 22:28N 37°49' W 122°22'0 0.0
2018-May-21 21:58N 37°49' W 122°22'0 0.0
2018-May-21 21:25N 37°49' W 122°22'0 0.0
2018-May-21 20:55N 37°49' W 122°22'0 0.0
2018-May-21 20:29N 37°49' W 122°22'0 0.0
2018-May-21 19:59N 37°49' W 122°22'0 0.0
2018-May-21 19:26N 37°49' W 122°22'0 0.0
2018-May-21 18:59N 37°49' W 122°22'0 0.0
2018-May-21 18:31N 37°49' W 122°22'0 0.0
2018-May-21 17:58N 37°49' W 122°22'0 0.0
2018-May-21 17:28N 37°49' W 122°22'0 0.0
2018-May-21 16:55N 37°49' W 122°22'0 0.0
2018-May-21 16:28N 37°49' W 122°22'0 0.0
2018-May-21 15:46N 37°49' W 122°22'0 0.0
2018-May-21 15:25N 37°49' W 122°22'0 0.0
2018-May-21 14:58N 37°49' W 122°22'0 0.0
2018-May-21 14:25N 37°49' W 122°22'0 0.0
2018-May-21 13:58N 37°49' W 122°22'0 0.0
2018-May-21 13:25N 37°49' W 122°22'0 0.0
2018-May-21 12:55N 37°49' W 122°22'0 0.0
2018-May-21 12:28N 37°49' W 122°22'0 0.0
2018-May-21 11:58N 37°49' W 122°22'0 0.0
2018-May-21 11:28N 37°49' W 122°22'0 0.0
2018-May-21 10:55N 37°49' W 122°22'0 0.0
2018-May-21 10:25N 37°49' W 122°22'0 0.0
2018-May-21 09:58N 37°49' W 122°22'0 0.0
2018-May-21 09:25N 37°49' W 122°22'0 0.0
2018-May-21 08:58N 37°49' W 122°22'0 0.0
2018-May-21 08:28N 37°49' W 122°22'0 0.0
2018-May-21 07:55N 37°49' W 122°22'0 0.0
2018-May-21 07:28N 37°49' W 122°22'0 0.0
2018-May-21 06:49N 37°49' W 122°22'0 0.0
2018-May-21 06:25N 37°49' W 122°22'0 0.0
2018-May-21 05:55N 37°49' W 122°22'0 0.0
2018-May-21 05:28N 37°49' W 122°22'0 0.0
2018-May-21 04:52N 37°49' W 122°22'0 0.0
2018-May-21 04:28N 37°49' W 122°22'2 3.7
2018-May-21 03:59N 37°49' W 122°24'1 2.4
2018-May-21 03:30N 37°49' W 122°25'0 0.0
2018-May-21 02:54N 37°49' W 122°25'0 0.0
2018-May-21 02:30N 37°49' W 122°25'0 0.0
2018-May-21 02:00N 37°49' W 122°25'0 0.0
2018-May-21 01:30N 37°49' W 122°25'0 0.0
2018-May-21 01:00N 37°49' W 122°25'0 0.0
2018-May-21 00:30N 37°49' W 122°25'0 0.0
2018-May-21 00:00N 37°49' W 122°25'0 0.0
2018-May-20 23:24N 37°49' W 122°25'0 0.0
2018-May-20 22:51N 37°49' W 122°25'0 0.0
2018-May-20 22:30N 37°49' W 122°25'0 0.0
2018-May-20 21:58N 37°49' W 122°25'0 0.0
2018-May-20 21:28N 37°49' W 122°25'0 0.0
2018-May-20 20:49N 37°49' W 122°25'0 0.2
2018-May-20 20:30N 37°49' W 122°25'0 0.0
2018-May-20 20:00N 37°49' W 122°25'0 0.0
2018-May-20 19:30N 37°49' W 122°25'0 0.0
2018-May-20 19:00N 37°49' W 122°25'0 0.0
2018-May-20 18:30N 37°49' W 122°25'0 0.0
2018-May-20 18:00N 37°49' W 122°25'0 0.0
2018-May-20 17:30N 37°49' W 122°25'0 0.0
2018-May-20 17:00N 37°49' W 122°25'0 0.0
2018-May-20 16:30N 37°49' W 122°25'0 0.0
2018-May-20 16:00N 37°49' W 122°25'0 0.0
2018-May-20 15:30N 37°49' W 122°25'0 0.1
2018-May-20 15:00N 37°49' W 122°25'0 0.1
2018-May-20 14:30N 37°49' W 122°25'0 0.1
2018-May-20 14:00N 37°49' W 122°25'0 0.0
2018-May-20 13:30N 37°49' W 122°25'0 0.0
2018-May-20 13:00N 37°49' W 122°25'0 0.0
2018-May-20 12:30N 37°49' W 122°25'2 4.5
2018-May-20 12:00N 37°50' W 122°23'1 2.2
2018-May-20 11:28N 37°49' W 122°22'0 0.0
2018-May-20 10:58N 37°49' W 122°22'0 0.0
2018-May-20 10:28N 37°49' W 122°22'0 0.0
2018-May-20 09:58N 37°49' W 122°22'0 0.0
2018-May-20 09:28N 37°49' W 122°22'0 0.0
2018-May-20 08:58N 37°49' W 122°22'0 0.0
2018-May-20 08:28N 37°49' W 122°22'0 0.0
2018-May-20 07:58N 37°49' W 122°22'  

Dump ship's entire track history